Davenport, Virginia
Current Conditions -  °F | °C
As of 7:15 AM on Sunday 23 Nov 2014 (Local Time) from KJFZ Reporting Station
Clear Clear  
Wind Chill: 10°   Ceiling: Unl
Heat Index: 10°   Visibility: 10mi
Dew Point:   Wind: 8mph
Humidity: 63%   Direction: 140°SE
Pressure: 30.12"   Gusts: NA
Location:  37.1°N, 82.14°W
Report Text: KJFZ 231215Z AUTO 14007KT 10SM CLR 10/03 A3012 RMK AO2 T01000032
Loading
Personal Weather Stations






























Interactive Weather Map New forecast layout! Learn more

10-Day Weather Forecast

Advertisements
Track Severe Weather on mobile